Time;durP1;ratioP1;P1;durP2;ratioP2;P2;SDS_P1;SDS_P2;PMS_P1;PMS_P2;Temp;Humidity;BMP_temperature;BMP_pressure;BME280_temperature;BME280_humidity;BME280_pressure;Samples;Min_cycle;Max_cycle;Signal;HPM_P1;HPM_P2
2024/02/28 00:01:27;;;;;;;15.37;13.73;;;7.10;45.40;;;;;;5090981;28;20267;-83
2024/02/28 00:03:53;;;;;;;16.00;13.70;;;7.20;49.50;;;;;;5090446;28;20261;-83
2024/02/28 00:06:19;;;;;;;16.47;13.93;;;7.10;49.30;;;;;;5090885;28;20176;-84
2024/02/28 00:08:46;;;;;;;18.27;14.07;;;7.00;48.40;;;;;;5090875;28;20210;-83
2024/02/28 00:11:11;;;;;;;16.23;13.53;;;7.00;52.20;;;;;;5090658;28;20193;-83
2024/02/28 00:13:37;;;;;;;17.20;13.63;;;6.90;51.10;;;;;;5092283;28;20184;-83
2024/02/28 00:16:03;;;;;;;17.83;14.00;;;6.80;54.00;;;;;;5091402;28;20638;-82
2024/02/28 00:18:31;;;;;;;15.83;13.10;;;6.70;56.70;;;;;;5091189;28;20176;-82
2024/02/28 00:20:56;;;;;;;18.47;13.47;;;6.80;54.60;;;;;;5089464;28;20695;-83
2024/02/28 00:23:22;;;;;;;17.37;13.33;;;6.60;57.60;;;;;;5090451;28;20697;-81
2024/02/28 00:25:47;;;;;;;17.03;13.23;;;6.50;62.30;;;;;;5090337;28;20172;-82
2024/02/28 00:28:13;;;;;;;17.33;13.97;;;6.40;68.20;;;;;;5091898;28;20194;-82
2024/02/28 00:30:39;;;;;;;15.43;13.10;;;6.30;74.60;;;;;;5090251;28;20612;-82
2024/02/28 00:33:05;;;;;;;17.77;14.27;;;6.40;81.50;;;;;;5091784;28;20183;-84
2024/02/28 00:35:35;;;;;;;17.67;14.67;;;6.40;80.60;;;;;;5094178;28;20620;-84
2024/02/28 00:38:01;;;;;;;17.90;14.10;;;6.40;77.00;;;;;;5094321;28;20190;-82
2024/02/28 00:40:28;;;;;;;16.83;13.77;;;6.50;76.00;;;;;;5093802;28;20175;-82
2024/02/28 00:42:54;;;;;;;19.40;14.53;;;6.40;73.70;;;;;;5095684;28;20222;-84
2024/02/28 00:45:20;;;;;;;19.20;15.10;;;6.20;78.10;;;;;;5093927;28;20180;-81
2024/02/28 00:47:45;;;;;;;23.40;15.80;;;6.40;84.50;;;;;;5095081;28;20225;-81
2024/02/28 00:50:11;;;;;;;19.43;15.23;;;6.20;80.30;;;;;;5093485;28;20203;-83
2024/02/28 00:52:37;;;;;;;18.10;14.57;;;6.10;83.80;;;;;;5094174;28;20179;-83
2024/02/28 00:55:04;;;;;;;17.77;15.17;;;6.10;84.60;;;;;;5094533;28;20179;-82
2024/02/28 00:57:31;;;;;;;19.70;15.40;;;6.00;90.00;;;;;;5094120;28;20180;-81
2024/02/28 00:59:56;;;;;;;18.27;14.97;;;5.90;92.90;;;;;;5091617;28;20198;-81
2024/02/28 01:02:22;;;;;;;18.17;15.13;;;5.90;93.80;;;;;;5094749;28;20516;-82
2024/02/28 01:04:48;;;;;;;18.23;14.97;;;5.90;94.90;;;;;;5093632;28;20168;-82
2024/02/28 01:07:14;;;;;;;18.83;15.10;;;5.70;96.10;;;;;;5093717;28;20174;-83
2024/02/28 01:09:39;;;;;;;18.00;14.27;;;5.60;98.40;;;;;;5093922;28;20229;-81
2024/02/28 01:12:05;;;;;;;21.93;14.70;;;5.60;99.90;;;;;;5095644;28;20179;-83
2024/02/28 01:14:31;;;;;;;22.57;14.83;;;5.60;99.90;;;;;;5093182;28;20229;-82
2024/02/28 01:16:57;;;;;;;17.20;14.47;;;5.50;99.90;;;;;;5093263;28;20168;-83
2024/02/28 01:19:22;;;;;;;19.83;14.40;;;5.60;99.90;;;;;;5093669;28;20171;-82
2024/02/28 01:21:48;;;;;;;18.03;13.80;;;5.40;99.90;;;;;;5092927;28;20182;-83
2024/02/28 01:24:13;;;;;;;18.60;14.90;;;5.40;99.90;;;;;;5092929;28;20210;-81
2024/02/28 01:26:40;;;;;;;20.43;15.40;;;5.40;99.90;;;;;;5093008;28;20650;-84
2024/02/28 01:29:06;;;;;;;16.90;14.27;;;5.30;99.90;;;;;;5091618;28;20180;-82
2024/02/28 01:31:31;;;;;;;19.70;14.60;;;5.30;99.90;;;;;;5093482;28;20228;-83
2024/02/28 01:33:57;;;;;;;17.93;14.87;;;5.30;99.90;;;;;;5092850;28;20179;-83
2024/02/28 01:36:23;;;;;;;20.43;16.03;;;5.30;99.90;;;;;;5091243;28;20246;-83
2024/02/28 01:38:49;;;;;;;19.17;15.03;;;5.40;99.90;;;;;;5093422;28;20172;-83
2024/02/28 01:41:14;;;;;;;17.53;15.00;;;5.60;99.90;;;;;;5093842;28;20620;-82
2024/02/28 01:43:40;;;;;;;19.50;15.73;;;5.70;98.50;;;;;;5092865;28;20575;-82
2024/02/28 01:46:25;;;;;;;18.67;16.37;;;5.50;97.50;;;;;;5093899;28;20534;-82
2024/02/28 01:48:51;;;;;;;21.13;18.90;;;5.40;99.30;;;;;;5092278;28;20171;-82
2024/02/28 01:51:17;;;;;;;23.80;20.87;;;5.30;99.90;;;;;;5092382;28;20181;-82
2024/02/28 01:53:44;;;;;;;35.90;32.13;;;5.20;99.90;;;;;;5093227;28;20616;-82
2024/02/28 01:56:11;;;;;;;46.90;42.30;;;5.30;99.90;;;;;;5093471;28;20197;-83
2024/02/28 01:58:37;;;;;;;48.73;43.83;;;5.40;99.90;;;;;;5092673;28;20168;-83
2024/02/28 02:01:03;;;;;;;46.13;41.50;;;5.40;99.90;;;;;;5092497;28;20695;-82
2024/02/28 02:03:29;;;;;;;45.77;40.53;;;5.40;99.90;;;;;;5091796;28;20223;-81
2024/02/28 02:05:54;;;;;;;41.70;37.20;;;5.30;99.90;;;;;;5092026;28;20412;-83
2024/02/28 02:08:22;;;;;;;38.17;34.37;;;5.40;99.90;;;;;;5091894;28;20286;-82
2024/02/28 02:10:47;;;;;;;37.93;33.97;;;5.20;99.90;;;;;;5091108;28;20205;-83
2024/02/28 02:13:13;;;;;;;39.20;34.33;;;5.30;99.90;;;;;;5092000;28;20203;-83
2024/02/28 02:15:39;;;;;;;38.60;34.67;;;5.30;99.90;;;;;;5092617;28;20638;-81
2024/02/28 02:18:04;;;;;;;37.10;32.70;;;5.40;99.90;;;;;;5091589;28;20171;-83
2024/02/28 02:20:33;;;;;;;35.63;31.90;;;5.50;99.90;;;;;;5090659;28;20184;-82
2024/02/28 02:22:58;;;;;;;35.23;31.47;;;5.40;99.90;;;;;;5090299;28;20227;-81
2024/02/28 02:25:24;;;;;;;33.23;29.73;;;5.40;99.90;;;;;;5091464;28;20205;-82
2024/02/28 02:27:50;;;;;;;32.20;28.47;;;5.40;99.90;;;;;;5091381;28;20187;-82
2024/02/28 02:30:15;;;;;;;31.20;27.03;;;5.30;99.90;;;;;;5092532;28;20175;-82
2024/02/28 02:32:41;;;;;;;29.77;24.17;;;5.30;99.90;;;;;;5091380;28;20179;-81
2024/02/28 02:35:07;;;;;;;25.73;23.00;;;5.40;99.90;;;;;;5092172;28;20541;-82
2024/02/28 02:37:33;;;;;;;24.60;21.27;;;5.20;99.90;;;;;;5091663;28;20167;-82
2024/02/28 02:39:59;;;;;;;21.60;17.77;;;5.20;99.90;;;;;;5089756;28;20169;-90
2024/02/28 02:42:25;;;;;;;20.10;17.10;;;5.10;99.90;;;;;;5091724;28;20164;-81
2024/02/28 02:44:50;;;;;;;20.37;16.20;;;5.10;99.90;;;;;;5091923;28;20538;-82
2024/02/28 02:47:16;;;;;;;20.07;16.10;;;5.00;99.90;;;;;;5090254;28;20192;-82
2024/02/28 02:49:42;;;;;;;19.17;15.07;;;4.90;99.90;;;;;;5091093;28;20267;-83
2024/02/28 02:52:07;;;;;;;18.57;14.77;;;4.90;99.90;;;;;;5091381;28;20603;-82
2024/02/28 02:54:33;;;;;;;21.83;15.57;;;5.00;99.90;;;;;;5091139;28;20180;-82
2024/02/28 02:56:58;;;;;;;18.87;14.93;;;5.00;99.90;;;;;;5090184;28;20213;-82
2024/02/28 02:59:24;;;;;;;17.80;14.53;;;5.10;99.90;;;;;;5090832;28;20185;-82
2024/02/28 03:01:50;;;;;;;18.50;15.57;;;5.20;99.70;;;;;;5091403;28;20689;-82
2024/02/28 03:04:16;;;;;;;21.13;15.37;;;5.20;95.90;;;;;;5089997;28;20207;-83
2024/02/28 03:06:42;;;;;;;17.73;14.47;;;5.00;95.90;;;;;;5090531;28;20172;-81
2024/02/28 03:09:07;;;;;;;20.07;15.17;;;4.90;97.40;;;;;;5090933;28;20195;-82
2024/02/28 03:11:35;;;;;;;18.37;14.73;;;4.90;99.50;;;;;;5091894;28;20266;-84
2024/02/28 03:14:01;;;;;;;19.03;14.87;;;5.00;99.70;;;;;;5092588;28;20225;-83
2024/02/28 03:16:26;;;;;;;17.83;14.90;;;5.20;97.10;;;;;;5095588;28;20171;-83
2024/02/28 03:18:52;;;;;;;20.00;15.67;;;5.00;96.70;;;;;;5096230;28;20164;-82
2024/02/28 03:21:18;;;;;;;19.13;15.33;;;5.00;97.20;;;;;;5099297;28;20175;-82
2024/02/28 03:23:43;;;;;;;21.30;15.77;;;4.90;97.00;;;;;;5093903;28;20207;-82
2024/02/28 03:26:09;;;;;;;21.03;15.20;;;4.90;95.90;;;;;;5090739;28;20697;-81
2024/02/28 03:28:34;;;;;;;19.20;15.43;;;5.00;97.50;;;;;;5092783;28;20515;-83
2024/02/28 03:31:00;;;;;;;17.83;15.07;;;4.90;94.50;;;;;;5092552;28;20246;-82
2024/02/28 03:33:26;;;;;;;18.67;14.30;;;4.90;96.30;;;;;;5090247;28;20266;-83
2024/02/28 03:35:51;;;;;;;20.97;15.07;;;4.80;98.60;;;;;;5090311;28;20239;-81
2024/02/28 03:38:17;;;;;;;18.10;14.03;;;4.80;99.80;;;;;;5090039;28;20171;-82
2024/02/28 03:40:42;;;;;;;18.67;14.80;;;4.70;99.90;;;;;;5090755;28;20170;-86
2024/02/28 03:43:08;;;;;;;17.47;13.87;;;4.70;99.90;;;;;;5092324;28;20290;-83
2024/02/28 03:45:38;;;;;;;20.73;14.63;;;4.60;99.90;;;;;;5090675;28;20168;-81
2024/02/28 03:48:04;;;;;;;19.40;14.60;;;4.50;99.90;;;;;;5091282;28;20181;-83
2024/02/28 03:50:30;;;;;;;17.53;14.37;;;4.50;99.90;;;;;;5090612;28;20203;-82
2024/02/28 03:52:55;;;;;;;21.97;15.23;;;4.60;99.90;;;;;;5091271;28;20178;-82
2024/02/28 03:55:21;;;;;;;17.50;14.60;;;4.60;99.90;;;;;;5090472;28;20768;-83
2024/02/28 03:57:48;;;;;;;18.90;15.03;;;4.50;99.90;;;;;;5090343;28;20168;-82
2024/02/28 04:00:14;;;;;;;18.87;14.87;;;4.50;99.90;;;;;;5089056;28;20191;-82
2024/02/28 04:02:39;;;;;;;20.67;14.60;;;4.50;99.90;;;;;;5090585;28;20365;-83
2024/02/28 04:05:05;;;;;;;21.03;14.80;;;4.40;99.90;;;;;;5090296;28;20175;-82
2024/02/28 04:07:31;;;;;;;20.97;15.27;;;4.40;99.90;;;;;;5092326;28;20187;-83
2024/02/28 04:09:57;;;;;;;18.50;14.73;;;4.40;99.90;;;;;;5093622;28;20884;-83
2024/02/28 04:12:22;;;;;;;19.73;15.40;;;4.40;99.90;;;;;;5094521;28;20612;-82
2024/02/28 04:14:48;;;;;;;19.53;13.80;;;4.30;99.90;;;;;;5093708;28;20183;-82
2024/02/28 04:17:14;;;;;;;20.00;14.90;;;4.30;99.90;;;;;;5094622;28;20186;-82
2024/02/28 04:19:39;;;;;;;18.30;14.30;;;4.30;99.90;;;;;;5094320;28;20701;-83
2024/02/28 04:22:05;;;;;;;21.47;15.47;;;4.50;99.90;;;;;;5094758;28;20176;-82
2024/02/28 04:24:32;;;;;;;17.77;14.87;;;4.70;99.90;;;;;;5094818;28;20612;-82
2024/02/28 04:26:59;;;;;;;18.43;14.37;;;4.70;99.90;;;;;;5094206;28;20174;-83
2024/02/28 04:29:25;;;;;;;21.87;15.23;;;4.70;96.90;;;;;;5092182;28;20539;-82
2024/02/28 04:31:51;;;;;;;23.10;16.37;;;4.70;92.30;;;;;;5093683;28;20236;-82
2024/02/28 04:34:16;;;;;;;21.43;15.40;;;4.70;91.70;;;;;;5093888;28;20160;-82
2024/02/28 04:36:42;;;;;;;29.23;16.07;;;4.70;87.40;;;;;;5093834;28;20198;-82
2024/02/28 04:39:08;;;;;;;19.37;15.27;;;4.60;90.30;;;;;;5094366;28;20522;-83
2024/02/28 04:41:34;;;;;;;20.30;14.57;;;4.40;94.20;;;;;;5092760;28;20186;-83
2024/02/28 04:44:00;;;;;;;19.43;14.63;;;4.40;99.20;;;;;;5093590;28;20203;-83
2024/02/28 04:46:25;;;;;;;20.30;15.03;;;4.30;99.90;;;;;;5092346;28;20205;-82
2024/02/28 04:48:51;;;;;;;19.93;15.33;;;4.30;99.90;;;;;;5093480;28;20221;-82
2024/02/28 04:51:20;;;;;;;20.27;14.93;;;4.40;99.90;;;;;;5093584;28;20184;-83
2024/02/28 04:53:45;;;;;;;21.93;15.83;;;4.40;99.90;;;;;;5093927;28;20262;-83
2024/02/28 04:56:11;;;;;;;22.00;16.03;;;4.50;99.90;;;;;;5094053;28;20278;-82
2024/02/28 04:58:37;;;;;;;20.70;15.60;;;4.50;99.90;;;;;;5094196;28;20176;-82
2024/02/28 05:01:03;;;;;;;21.43;15.87;;;4.60;99.70;;;;;;5096032;28;20211;-82
2024/02/28 05:03:29;;;;;;;19.30;15.57;;;4.50;96.70;;;;;;5095382;28;20295;-82
2024/02/28 05:05:55;;;;;;;19.07;16.03;;;4.60;97.60;;;;;;5092805;28;20191;-83
2024/02/28 05:08:21;;;;;;;23.23;16.43;;;4.60;96.60;;;;;;5092880;28;20191;-82
2024/02/28 05:10:46;;;;;;;23.43;15.97;;;4.70;95.30;;;;;;5093387;28;20183;-82
2024/02/28 05:13:12;;;;;;;24.20;16.73;;;4.70;93.00;;;;;;5093413;28;20175;-82
2024/02/28 05:15:38;;;;;;;23.37;15.07;;;4.60;95.70;;;;;;5094156;28;20685;-81
2024/02/28 05:18:04;;;;;;;21.10;17.00;;;4.70;98.00;;;;;;5093480;28;20317;-83
2024/02/28 05:20:30;;;;;;;21.17;16.33;;;4.70;98.20;;;;;;5092642;28;20191;-81
2024/02/28 05:22:55;;;;;;;25.50;17.50;;;4.80;94.50;;;;;;5091870;28;20199;-82
2024/02/28 05:25:21;;;;;;;22.33;16.23;;;4.60;95.50;;;;;;5094048;28;20172;-82
2024/02/28 05:27:47;;;;;;;24.37;15.67;;;4.70;97.40;;;;;;5092826;28;20172;-83
2024/02/28 05:30:12;;;;;;;23.03;15.67;;;4.70;99.70;;;;;;5092581;28;20224;-83
2024/02/28 05:32:38;;;;;;;24.57;15.87;;;4.50;99.90;;;;;;5092841;28;20187;-82
2024/02/28 05:35:04;;;;;;;20.30;15.20;;;4.40;99.90;;;;;;5092376;28;20542;-82
2024/02/28 05:37:30;;;;;;;20.93;15.20;;;4.40;99.90;;;;;;5093359;28;20175;-82
2024/02/28 05:39:55;;;;;;;18.90;13.73;;;4.40;99.90;;;;;;5093482;28;20179;-86
2024/02/28 05:42:24;;;;;;;24.30;14.80;;;4.40;99.90;;;;;;5091706;28;20270;-83
2024/02/28 05:44:50;;;;;;;18.50;14.57;;;4.60;99.90;;;;;;5092798;28;20211;-83
2024/02/28 05:47:16;;;;;;;16.83;13.20;;;4.50;99.90;;;;;;5092628;28;20178;-81
2024/02/28 05:49:42;;;;;;;18.77;14.40;;;4.50;99.90;;;;;;5093387;28;20175;-82
2024/02/28 05:52:07;;;;;;;23.70;14.37;;;4.70;99.90;;;;;;5093879;28;20619;-82
2024/02/28 05:54:36;;;;;;;20.77;14.17;;;4.90;99.90;;;;;;5092325;28;20172;-82
2024/02/28 05:57:02;;;;;;;17.43;14.10;;;4.80;99.90;;;;;;5091110;28;20250;-83
2024/02/28 05:59:27;;;;;;;21.00;14.27;;;4.90;99.90;;;;;;5090566;28;21234;-82
2024/02/28 06:01:53;;;;;;;22.00;15.17;;;5.00;99.90;;;;;;5093378;28;20301;-84
2024/02/28 06:04:19;;;;;;;20.53;14.50;;;5.20;98.40;;;;;;5092415;28;20203;-81
2024/02/28 06:06:44;;;;;;;18.27;14.23;;;5.10;92.50;;;;;;5092657;28;20258;-83
2024/02/28 06:09:10;;;;;;;24.97;14.60;;;5.30;90.10;;;;;;5091306;28;20241;-83
2024/02/28 06:11:36;;;;;;;18.67;15.57;;;5.40;83.60;;;;;;5092342;28;20607;-82
2024/02/28 06:14:05;;;;;;;21.17;15.30;;;5.50;75.80;;;;;;5091585;28;20641;-83
2024/02/28 06:16:30;;;;;;;21.17;14.23;;;5.20;73.40;;;;;;5092104;28;20175;-83
2024/02/28 06:18:56;;;;;;;20.00;15.20;;;5.40;77.80;;;;;;5092326;28;20172;-83
2024/02/28 06:21:23;;;;;;;19.70;14.77;;;5.40;70.60;;;;;;5091947;28;20169;-83
2024/02/28 06:23:48;;;;;;;20.03;15.23;;;5.60;69.60;;;;;;5091935;28;20203;-82
2024/02/28 06:26:17;;;;;;;22.63;16.00;;;5.30;68.90;;;;;;5093309;28;20624;-88
2024/02/28 06:28:46;;;;;;;23.93;16.23;;;5.50;73.30;;;;;;5090185;28;20229;-86
2024/02/28 06:31:16;;;;;;;22.43;16.67;;;5.50;65.20;;;;;;5091320;28;20210;-84
2024/02/28 06:33:42;;;;;;;22.37;13.97;;;5.50;67.20;;;;;;5092972;28;20175;-82
2024/02/28 06:36:08;;;;;;;25.23;14.87;;;5.30;75.20;;;;;;5091562;28;20171;-83
2024/02/28 06:38:34;;;;;;;25.43;15.53;;;5.30;86.50;;;;;;5091939;28;20164;-82
2024/02/28 06:41:05;;;;;;;22.87;15.77;;;5.40;90.50;;;;;;5091292;28;20627;-83
2024/02/28 06:43:37;;;;;;;21.57;15.67;;;5.40;91.90;;;;;;5092267;28;20193;-82
2024/02/28 06:46:03;;;;;;;25.00;15.73;;;5.30;94.70;;;;;;5090988;28;20175;-82
2024/02/28 06:48:29;;;;;;;22.37;14.93;;;5.40;97.50;;;;;;5093074;28;20175;-82
2024/02/28 06:50:54;;;;;;;25.73;15.90;;;5.50;98.80;;;;;;5090310;28;20270;-81
2024/02/28 06:53:20;;;;;;;23.10;15.07;;;5.70;98.00;;;;;;5092875;28;20167;-82
2024/02/28 06:55:48;;;;;;;21.20;14.93;;;5.70;96.10;;;;;;5091112;28;20645;-81
2024/02/28 06:58:14;;;;;;;23.80;15.63;;;5.90;95.90;;;;;;5090137;28;20172;-83
2024/02/28 07:00:40;;;;;;;26.37;16.17;;;6.00;95.20;;;;;;5089475;28;20772;-86
2024/02/28 07:03:05;;;;;;;25.20;15.97;;;6.10;92.20;;;;;;5087350;28;20296;-82
2024/02/28 07:05:31;;;;;;;21.93;15.83;;;6.10;90.50;;;;;;5089952;28;20535;-84
2024/02/28 07:07:57;;;;;;;26.07;16.03;;;6.10;91.70;;;;;;5088860;28;20227;-83
2024/02/28 07:10:23;;;;;;;22.30;16.07;;;6.10;91.80;;;;;;5087707;28;20179;-84
2024/02/28 07:12:49;;;;;;;24.40;16.07;;;6.10;93.40;;;;;;5090245;28;20346;-82
2024/02/28 07:15:14;;;;;;;22.40;16.07;;;6.20;94.30;;;;;;5091232;28;20659;-83
2024/02/28 07:17:40;;;;;;;23.23;15.53;;;6.20;93.30;;;;;;5089468;28;20174;-83
2024/02/28 07:20:06;;;;;;;25.00;15.73;;;6.40;94.80;;;;;;5089991;28;20248;-84
2024/02/28 07:22:32;;;;;;;23.27;15.43;;;6.20;96.80;;;;;;5091042;28;20588;-82
2024/02/28 07:24:58;;;;;;;25.37;16.37;;;6.40;97.70;;;;;;5090697;28;20183;-81
2024/02/28 07:27:26;;;;;;;25.20;16.73;;;6.50;97.90;;;;;;5090863;28;20648;-82
2024/02/28 07:29:52;;;;;;;24.80;16.67;;;6.80;97.40;;;;;;5089000;28;20171;-82
2024/02/28 07:32:17;;;;;;;32.97;19.10;;;6.90;92.40;;;;;;5089554;28;20244;-83
2024/02/28 07:34:43;;;;;;;26.37;17.77;;;7.10;90.30;;;;;;5091345;28;20221;-84
2024/02/28 07:37:08;;;;;;;30.17;17.33;;;7.00;88.70;;;;;;5091911;28;20171;-83
2024/02/28 07:39:34;;;;;;;25.67;17.67;;;7.00;90.40;;;;;;5089995;28;20164;-83
2024/02/28 07:42:00;;;;;;;26.33;17.30;;;6.90;92.80;;;;;;5090775;28;20553;-87
2024/02/28 07:44:26;;;;;;;27.90;17.07;;;6.80;94.90;;;;;;5093792;28;20643;-84
2024/02/28 07:46:51;;;;;;;26.63;17.23;;;6.90;98.60;;;;;;5094035;28;20175;-81
2024/02/28 07:49:17;;;;;;;26.67;16.30;;;6.90;99.90;;;;;;5094121;28;20539;-83
2024/02/28 07:51:43;;;;;;;24.57;15.43;;;6.90;99.90;;;;;;5094516;28;20172;-83
2024/02/28 07:54:08;;;;;;;23.23;14.77;;;7.10;99.90;;;;;;5095214;28;20645;-85
2024/02/28 07:56:34;;;;;;;21.97;15.07;;;6.90;99.90;;;;;;5093865;28;20794;-84
2024/02/28 07:59:00;;;;;;;25.70;14.53;;;7.00;99.90;;;;;;5094326;28;20176;-83
2024/02/28 08:01:25;;;;;;;21.23;12.93;;;6.90;99.90;;;;;;5094666;28;20226;-83
2024/02/28 08:03:51;;;;;;;30.27;14.67;;;7.00;99.90;;;;;;5094620;28;20219;-82
2024/02/28 08:06:17;;;;;;;24.07;13.53;;;6.90;99.90;;;;;;5092218;28;20533;-82
2024/02/28 08:08:48;;;;;;;21.67;12.90;;;7.00;99.90;;;;;;5093539;28;20207;-84
2024/02/28 08:11:14;;;;;;;21.87;13.93;;;7.00;99.90;;;;;;5094112;28;20185;-82
2024/02/28 08:13:40;;;;;;;17.67;12.97;;;7.00;99.90;;;;;;5094358;28;20184;-82
2024/02/28 08:16:08;;;;;;;23.30;13.60;;;7.00;99.90;;;;;;5094703;28;20179;-84
2024/02/28 08:18:35;;;;;;;21.40;13.47;;;7.10;99.90;;;;;;5093757;28;20507;-82
2024/02/28 08:21:02;;;;;;;20.93;14.23;;;7.00;99.90;;;;;;5092173;28;20541;-83
2024/02/28 08:23:27;;;;;;;18.33;12.83;;;7.10;99.90;;;;;;5093801;28;20231;-82
2024/02/28 08:25:56;;;;;;;21.43;14.87;;;7.10;99.90;;;;;;5093800;28;20343;-83
2024/02/28 08:28:21;;;;;;;20.90;13.40;;;7.10;99.90;;;;;;5095717;28;20163;-83
2024/02/28 08:30:48;;;;;;;20.43;13.97;;;7.10;99.90;;;;;;5093295;28;20268;-84
2024/02/28 08:33:14;;;;;;;21.43;13.43;;;7.10;99.90;;;;;;5093573;28;20226;-83
2024/02/28 08:35:40;;;;;;;18.97;13.23;;;7.20;99.90;;;;;;5091699;28;20172;-83
2024/02/28 08:38:05;;;;;;;22.30;13.63;;;7.20;99.90;;;;;;5093255;28;20237;-84
2024/02/28 08:40:31;;;;;;;21.07;13.90;;;7.20;99.90;;;;;;5093559;28;20198;-83
2024/02/28 08:42:57;;;;;;;21.63;12.50;;;7.30;99.90;;;;;;5092656;28;20575;-84
2024/02/28 08:45:23;;;;;;;19.93;13.07;;;7.60;99.90;;;;;;5093417;28;20282;-84
2024/02/28 08:47:49;;;;;;;23.10;13.40;;;7.50;99.90;;;;;;5092750;28;20166;-84
2024/02/28 08:50:14;;;;;;;19.50;13.40;;;7.70;99.00;;;;;;5092961;28;20172;-83
2024/02/28 08:52:40;;;;;;;22.47;12.80;;;7.60;97.50;;;;;;5093763;28;20167;-82
2024/02/28 08:55:06;;;;;;;21.87;14.30;;;7.90;93.50;;;;;;5092341;28;20186;-84
2024/02/28 08:57:32;;;;;;;20.53;13.93;;;7.60;89.90;;;;;;5091871;28;20174;-83
2024/02/28 08:59:57;;;;;;;20.73;14.00;;;7.70;91.40;;;;;;5092731;28;20316;-85
2024/02/28 09:02:23;;;;;;;25.83;15.57;;;7.70;85.60;;;;;;5093617;28;20534;-83
2024/02/28 09:04:51;;;;;;;22.40;15.53;;;7.70;90.60;;;;;;5094603;28;20275;-83
2024/02/28 09:07:20;;;;;;;19.90;14.53;;;7.70;93.50;;;;;;5092749;28;20619;-82
2024/02/28 09:09:46;;;;;;;28.20;16.53;;;7.70;94.30;;;;;;5091565;28;20564;-85
2024/02/28 09:12:13;;;;;;;26.63;15.47;;;7.80;94.40;;;;;;5093348;28;20258;-82
2024/02/28 09:14:38;;;;;;;24.70;15.57;;;7.80;93.20;;;;;;5093586;28;20179;-83
2024/02/28 09:17:04;;;;;;;24.03;15.57;;;7.70;92.90;;;;;;5092022;28;20534;-83
2024/02/28 09:19:31;;;;;;;26.60;15.97;;;7.80;91.90;;;;;;5092807;28;20264;-84
2024/02/28 09:21:57;;;;;;;26.30;14.53;;;8.00;92.00;;;;;;5092200;28;20179;-83
2024/02/28 09:24:26;;;;;;;22.50;14.77;;;7.90;91.50;;;;;;5091928;28;20210;-87
2024/02/28 09:26:52;;;;;;;25.17;15.40;;;7.90;90.30;;;;;;5092634;28;20182;-84
2024/02/28 09:29:18;;;;;;;20.50;14.20;;;8.00;89.20;;;;;;5092789;28;20258;-84
2024/02/28 09:31:44;;;;;;;22.47;13.77;;;7.90;86.30;;;;;;5093608;28;20176;-85
2024/02/28 09:34:09;;;;;;;23.07;14.83;;;8.00;91.50;;;;;;5091714;28;20168;-85
2024/02/28 09:36:45;;;;;;;22.70;13.07;;;8.00;92.20;;;;;;5093413;28;20183;-83
2024/02/28 09:39:17;;;;;;;20.90;13.07;;;7.80;99.90;;;;;;5093884;28;20213;-83
2024/02/28 09:41:43;;;;;;;21.97;13.93;;;8.20;99.90;;;;;;5092989;28;20183;-85
2024/02/28 09:44:09;;;;;;;25.30;14.23;;;8.50;99.90;;;;;;5095467;28;20271;-84
2024/02/28 09:46:35;;;;;;;21.37;13.57;;;8.40;99.90;;;;;;5095309;28;20242;-85
2024/02/28 09:49:07;;;;;;;23.20;14.43;;;8.30;99.90;;;;;;5096077;28;20171;-85
2024/02/28 09:51:35;;;;;;;26.03;14.20;;;8.30;96.80;;;;;;5090821;28;20266;-89
2024/02/28 09:54:04;;;;;;;21.33;13.67;;;8.40;96.10;;;;;;5085154;28;20183;-85
2024/02/28 09:56:33;;;;;;;23.53;13.73;;;8.30;91.10;;;;;;5093133;28;20329;-85
2024/02/28 09:59:02;;;;;;;22.10;13.63;;;8.20;91.50;;;;;;5094831;28;20171;-86
2024/02/28 10:01:29;;;;;;;19.50;12.50;;;8.60;92.70;;;;;;5095691;28;20216;-89
2024/02/28 10:03:56;;;;;;;23.63;14.57;;;9.00;88.90;;;;;;5099762;28;20215;-87
2024/02/28 10:06:22;;;;;;;25.47;14.63;;;9.20;75.70;;;;;;5112030;28;20202;-91
2024/02/28 10:08:48;;;;;;;23.40;14.63;;;9.40;63.80;;;;;;5107561;28;20666;-91
2024/02/28 10:11:22;;;;;;;26.10;16.47;;;9.50;47.90;;;;;;5097667;28;20212;-83
2024/02/28 10:13:48;;;;;;;27.23;16.27;;;9.30;38.50;;;;;;5093338;28;20180;-84
2024/02/28 10:16:15;;;;;;;27.97;17.20;;;9.30;39.30;;;;;;5093798;28;20171;-84
2024/02/28 10:18:45;;;;;;;29.13;15.93;;;9.40;49.30;;;;;;5093121;28;20187;-79
2024/02/28 10:21:15;;;;;;;26.73;16.87;;;9.60;54.90;;;;;;5096539;28;20159;-87
2024/02/28 10:23:41;;;;;;;22.73;14.10;;;9.70;51.90;;;;;;5095478;28;20244;-85
2024/02/28 10:26:10;;;;;;;20.57;13.70;;;9.50;41.70;;;;;;5093664;28;20175;-85
2024/02/28 10:28:43;;;;;;;19.80;12.80;;;9.40;39.70;;;;;;5093697;28;20184;-85
2024/02/28 10:31:10;;;;;;;22.27;12.67;;;9.40;44.70;;;;;;5093902;28;20186;-86
2024/02/28 10:33:36;;;;;;;20.07;12.23;;;9.30;50.10;;;;;;5090676;28;20202;-85
2024/02/28 10:36:03;;;;;;;18.13;11.90;;;9.20;54.50;;;;;;5093170;28;20164;-85
2024/02/28 10:38:32;;;;;;;17.67;11.83;;;9.10;63.40;;;;;;5093427;28;20181;-87
2024/02/28 10:41:00;;;;;;;17.07;11.07;;;9.20;68.70;;;;;;5092686;28;20174;-86
2024/02/28 10:43:31;;;;;;;16.97;12.07;;;9.30;65.10;;;;;;5094597;28;20203;-85
2024/02/28 10:46:00;;;;;;;18.90;11.10;;;9.30;69.40;;;;;;5087863;28;20352;-85
2024/02/28 10:48:26;;;;;;;20.60;12.50;;;9.50;61.30;;;;;;5073782;28;20188;-86
2024/02/28 10:50:55;;;;;;;16.43;11.53;;;9.40;56.20;;;;;;5073307;28;20203;-85
2024/02/28 10:53:30;;;;;;;13.90;10.40;;;9.40;53.90;;;;;;5073822;28;20172;-85
2024/02/28 10:56:02;;;;;;;17.93;10.63;;;9.30;55.70;;;;;;5073590;28;20180;-85
2024/02/28 10:58:35;;;;;;;11.97;10.17;;;9.30;63.10;;;;;;5071252;28;20177;-84
2024/02/28 11:01:01;;;;;;;15.33;10.63;;;9.10;72.30;;;;;;5072378;28;20196;-85
2024/02/28 11:03:27;;;;;;;16.93;11.77;;;9.20;78.00;;;;;;5071487;28;20306;-83
2024/02/28 11:05:52;;;;;;;14.87;10.10;;;9.20;79.40;;;;;;5078127;28;20234;-85
2024/02/28 11:08:23;;;;;;;16.83;10.27;;;9.20;78.20;;;;;;5092182;28;20202;-83
2024/02/28 11:10:56;;;;;;;14.30;9.67;;;9.30;82.40;;;;;;5091732;28;20181;-84
2024/02/28 11:13:26;;;;;;;13.50;9.50;;;9.50;75.50;;;;;;5077030;28;20172;-83
2024/02/28 11:15:53;;;;;;;13.93;9.53;;;9.40;74.90;;;;;;5084295;28;20262;-84
2024/02/28 11:18:19;;;;;;;12.33;8.67;;;9.50;67.10;;;;;;5096912;28;20172;-84
2024/02/28 11:20:48;;;;;;;10.77;8.33;;;9.60;62.10;;;;;;5092166;28;20172;-83
2024/02/28 11:23:17;;;;;;;10.63;8.23;;;9.70;53.90;;;;;;5093025;28;20244;-84
2024/02/28 11:25:43;;;;;;;11.10;7.80;;;9.70;43.10;;;;;;5095306;28;20267;-87
2024/02/28 11:28:09;;;;;;;9.87;7.43;;;9.90;39.80;;;;;;5114234;28;20191;-86
2024/02/28 11:30:35;;;;;;;13.33;8.10;;;9.90;33.20;;;;;;5113043;28;20177;-85
2024/02/28 11:33:02;;;;;;;10.97;7.47;;;10.00;30.80;;;;;;5112257;28;20267;-85
2024/02/28 11:35:28;;;;;;;11.43;7.23;;;10.00;25.90;;;;;;5111631;28;20174;-87
2024/02/28 11:37:57;;;;;;;11.10;7.03;;;10.20;19.60;;;;;;5092722;28;20186;-86
2024/02/28 11:40:27;;;;;;;10.17;7.07;;;10.20;15.70;;;;;;5091954;28;20224;-84
2024/02/28 11:42:57;;;;;;;10.80;6.90;;;10.10;13.80;;;;;;5094063;28;20274;-85
2024/02/28 11:45:23;;;;;;;12.50;7.33;;;10.20;11.90;;;;;;5091890;28;20183;-86
2024/02/28 11:47:49;;;;;;;8.90;6.67;;;10.20;10.10;;;;;;5112112;28;20171;-87
2024/02/28 11:50:14;;;;;;;8.33;6.53;;;10.40;8.30;;;;;;5112231;28;20186;-86
2024/02/28 11:52:40;;;;;;;8.20;6.40;;;10.30;3.60;;;;;;5099224;28;20654;-85
2024/02/28 11:55:06;;;;;;;10.07;6.47;;;10.50;1.00;;;;;;5091634;28;20194;-84
2024/02/28 11:57:33;;;;;;;10.77;7.13;;;10.60;1.00;;;;;;5093408;28;20244;-85
2024/02/28 12:00:09;;;;;;;11.37;6.43;;;10.70;1.00;;;;;;5091466;28;20195;-83
2024/02/28 12:02:35;;;;;;;11.43;6.67;;;10.80;1.00;;;;;;5098400;28;20213;-86
2024/02/28 12:05:04;;;;;;;8.10;6.03;;;10.90;1.00;;;;;;5093333;28;20685;-85
2024/02/28 12:07:30;;;;;;;9.17;6.10;;;10.90;1.00;;;;;;5094397;28;20195;-87
2024/02/28 12:09:56;;;;;;;9.90;6.00;;;11.00;1.00;;;;;;5092101;28;20186;-88
2024/02/28 12:12:22;;;;;;;8.33;5.80;;;11.00;1.00;;;;;;5092365;28;20625;-86
2024/02/28 12:14:47;;;;;;;8.30;6.33;;;11.10;1.00;;;;;;5094107;28;20666;-86
2024/02/28 12:17:16;;;;;;;8.83;5.83;;;11.10;1.00;;;;;;5093934;28;20201;-90
2024/02/28 12:19:43;;;;;;;8.50;6.30;;;11.10;1.00;;;;;;5089828;28;20196;-89
2024/02/28 12:22:11;;;;;;;8.40;5.63;;;11.20;1.00;;;;;;5082886;28;20200;-87
2024/02/28 12:24:36;;;;;;;11.90;5.70;;;11.10;1.00;;;;;;5083177;28;20216;-91
2024/02/28 12:27:02;;;;;;;8.63;5.07;;;11.10;1.00;;;;;;5085340;28;20172;-90
2024/02/28 12:29:28;;;;;;;7.90;6.03;;;11.20;1.00;;;;;;5083559;28;20203;-94
2024/02/28 12:31:53;;;;;;;10.13;6.00;;;11.30;1.00;;;;;;5087172;28;20188;-87
2024/02/28 12:34:19;;;;;;;9.20;6.13;;;11.30;1.00;;;;;;5087066;28;20176;-85